Time;durP1;ratioP1;P1;durP2;ratioP2;P2;SDS_P1;SDS_P2;PMS_P1;PMS_P2;Temp;Humidity;BMP_temperature;BMP_pressure;BME280_temperature;BME280_humidity;BME280_pressure;Samples;Min_cycle;Max_cycle;Signal;HPM_P1;HPM_P2
2022/03/05 00:00:52;;;;;;;3.47;3.17;;;1.50;99.90;;;;;;4925718;28;20051;-75
2022/03/05 00:03:18;;;;;;;8.53;3.17;;;1.50;99.90;;;;;;4925616;29;20094;-75
2022/03/05 00:05:45;;;;;;;3.13;2.93;;;1.50;99.90;;;;;;4926152;28;20518;-75
2022/03/05 00:08:11;;;;;;;4.07;3.77;;;1.50;99.90;;;;;;4925160;29;20047;-75
2022/03/05 00:10:36;;;;;;;5.63;4.67;;;1.50;99.90;;;;;;4924184;29;20035;-75
2022/03/05 00:13:03;;;;;;;9.50;5.00;;;1.40;99.90;;;;;;4925425;28;20376;-75
2022/03/05 00:15:28;;;;;;;6.07;4.13;;;1.40;99.90;;;;;;4924413;29;20047;-75
2022/03/05 00:17:55;;;;;;;3.40;3.10;;;1.40;99.90;;;;;;4924306;29;20055;-75
2022/03/05 00:20:25;;;;;;;4.17;3.83;;;1.40;99.90;;;;;;4925053;29;20040;-75
2022/03/05 00:22:53;;;;;;;6.03;5.60;;;1.40;99.90;;;;;;4923400;29;20044;-75
2022/03/05 00:25:20;;;;;;;4.33;3.53;;;1.40;99.90;;;;;;4940281;28;20090;-75
2022/03/05 00:27:46;;;;;;;3.33;3.10;;;1.40;99.90;;;;;;4923732;29;20060;-75
2022/03/05 00:30:12;;;;;;;14.00;4.77;;;1.30;99.90;;;;;;4926032;28;20052;-75
2022/03/05 00:32:37;;;;;;;19.20;4.07;;;1.30;99.90;;;;;;4923716;29;20483;-75
2022/03/05 00:35:04;;;;;;;3.10;2.80;;;1.30;99.90;;;;;;4924055;28;20479;-75
2022/03/05 00:37:30;;;;;;;4.03;3.63;;;1.30;99.90;;;;;;4939857;28;20047;-75
2022/03/05 00:39:56;;;;;;;5.00;3.37;;;1.30;99.90;;;;;;4923898;29;20087;-75
2022/03/05 00:42:21;;;;;;;9.70;4.23;;;1.20;99.90;;;;;;4925238;29;20130;-75
2022/03/05 00:44:47;;;;;;;4.40;4.00;;;1.20;99.90;;;;;;4924791;29;20058;-75
2022/03/05 00:47:13;;;;;;;4.67;4.27;;;1.20;99.90;;;;;;4940760;28;20032;-75
2022/03/05 00:49:38;;;;;;;5.53;4.83;;;1.20;99.90;;;;;;4925339;29;20043;-75
2022/03/05 00:52:04;;;;;;;5.93;4.77;;;1.10;99.90;;;;;;4923953;29;20554;-75
2022/03/05 00:54:30;;;;;;;4.97;4.67;;;1.10;99.90;;;;;;4928625;29;20469;-75
2022/03/05 00:56:55;;;;;;;4.10;3.70;;;1.10;99.90;;;;;;4929070;28;20052;-75
2022/03/05 00:59:21;;;;;;;8.60;5.07;;;1.10;99.90;;;;;;4928853;28;20035;-75
2022/03/05 01:01:46;;;;;;;5.33;4.83;;;1.10;99.90;;;;;;4929003;28;20550;-75
2022/03/05 01:04:12;;;;;;;4.47;3.97;;;1.10;99.90;;;;;;4929042;29;20059;-75
2022/03/05 01:06:37;;;;;;;7.20;3.87;;;1.00;99.90;;;;;;4928082;29;20103;-75
2022/03/05 01:09:04;;;;;;;15.37;7.23;;;1.00;99.90;;;;;;4928828;29;20098;-75
2022/03/05 01:11:31;;;;;;;8.70;4.83;;;1.00;99.90;;;;;;4928177;29;20048;-75
2022/03/05 01:13:57;;;;;;;5.23;4.83;;;1.10;99.90;;;;;;4928618;28;20048;-75
2022/03/05 01:16:22;;;;;;;2.77;2.57;;;1.00;99.90;;;;;;4929180;28;20083;-75
2022/03/05 01:18:48;;;;;;;4.77;4.33;;;1.00;99.90;;;;;;4928531;29;20044;-75
2022/03/05 01:21:14;;;;;;;9.47;5.50;;;1.00;99.90;;;;;;4928428;29;20051;-75
2022/03/05 01:23:39;;;;;;;5.40;5.00;;;1.00;99.90;;;;;;4929423;29;20036;-75
2022/03/05 01:26:05;;;;;;;4.47;4.17;;;1.00;99.90;;;;;;4926979;28;20078;-75
2022/03/05 01:28:31;;;;;;;3.87;3.57;;;1.00;99.90;;;;;;4927435;29;20114;-75
2022/03/05 01:30:57;;;;;;;5.13;3.50;;;0.90;99.90;;;;;;4928142;29;20126;-75
2022/03/05 01:33:22;;;;;;;11.97;4.17;;;0.90;99.90;;;;;;4928444;28;20109;-75
2022/03/05 01:35:49;;;;;;;8.60;4.50;;;0.90;99.90;;;;;;4928291;28;20119;-75
2022/03/05 01:38:15;;;;;;;6.10;5.33;;;0.80;99.90;;;;;;4927755;28;20118;-75
2022/03/05 01:40:42;;;;;;;4.00;3.33;;;0.80;99.90;;;;;;4928917;29;20051;-75
2022/03/05 01:43:08;;;;;;;4.03;3.73;;;0.80;99.90;;;;;;4927431;29;20175;-75
2022/03/05 01:45:34;;;;;;;4.73;4.43;;;0.80;99.90;;;;;;4928002;28;20482;-75
2022/03/05 01:48:00;;;;;;;7.53;2.93;;;0.70;99.90;;;;;;4926821;29;20074;-75
2022/03/05 01:50:26;;;;;;;3.87;3.57;;;0.70;99.90;;;;;;4928024;28;20048;-75
2022/03/05 01:52:52;;;;;;;5.20;4.90;;;0.70;99.90;;;;;;4925822;29;20538;-75
2022/03/05 01:55:18;;;;;;;6.23;4.70;;;0.70;99.90;;;;;;4928022;28;20044;-75
2022/03/05 01:57:44;;;;;;;8.47;4.10;;;0.70;99.90;;;;;;4927055;28;20055;-75
2022/03/05 02:00:12;;;;;;;3.13;2.93;;;0.70;99.90;;;;;;4926897;29;20487;-75
2022/03/05 02:02:37;;;;;;;7.67;3.10;;;0.60;99.90;;;;;;4926512;29;20102;-75
2022/03/05 02:05:05;;;;;;;5.53;3.87;;;0.70;99.90;;;;;;4927046;29;20126;-75
2022/03/05 02:07:31;;;;;;;3.40;3.10;;;0.70;99.90;;;;;;4926906;29;20559;-75
2022/03/05 02:09:57;;;;;;;5.20;3.70;;;0.60;99.90;;;;;;4927115;28;20098;-75
2022/03/05 02:12:32;;;;;;;3.27;2.83;;;0.60;99.90;;;;;;4940899;23;20040;-75
2022/03/05 02:14:59;;;;;;;3.87;3.60;;;0.60;99.90;;;;;;4927417;29;20048;-75
2022/03/05 02:17:27;;;;;;;5.13;3.97;;;0.60;99.90;;;;;;4928129;29;20122;-76
2022/03/05 02:19:56;;;;;;;7.13;4.57;;;0.60;99.90;;;;;;4927029;29;20062;-75
2022/03/05 02:22:22;;;;;;;4.57;4.27;;;0.50;99.90;;;;;;4925715;29;20066;-75
2022/03/05 02:24:51;;;;;;;4.13;3.77;;;0.50;99.90;;;;;;4927242;29;20047;-75
2022/03/05 02:27:16;;;;;;;12.17;4.33;;;0.50;99.90;;;;;;4927707;29;20087;-75
2022/03/05 02:29:42;;;;;;;7.33;5.10;;;0.50;99.90;;;;;;4926935;29;20081;-76
2022/03/05 02:32:07;;;;;;;6.43;4.90;;;0.50;99.90;;;;;;4927190;29;20050;-75
2022/03/05 02:34:33;;;;;;;4.47;3.63;;;0.50;99.90;;;;;;4927383;29;20621;-76
2022/03/05 02:36:59;;;;;;;5.43;4.40;;;0.50;99.90;;;;;;4925739;29;20043;-75
2022/03/05 02:39:25;;;;;;;13.33;3.33;;;0.50;99.90;;;;;;4927193;29;20086;-76
2022/03/05 02:41:55;;;;;;;7.10;5.43;;;0.50;99.90;;;;;;4925952;29;20272;-77
2022/03/05 02:44:23;;;;;;;6.43;5.03;;;0.50;99.90;;;;;;4926129;29;20043;-76
2022/03/05 02:46:49;;;;;;;2.97;2.77;;;0.40;99.90;;;;;;4926984;29;20500;-76
2022/03/05 02:49:15;;;;;;;9.20;3.47;;;0.40;99.90;;;;;;4927120;29;20127;-76
2022/03/05 02:51:41;;;;;;;6.10;5.47;;;0.40;99.90;;;;;;4925702;29;20052;-76
2022/03/05 02:54:06;;;;;;;6.07;5.50;;;0.40;99.90;;;;;;4926782;29;20044;-76
2022/03/05 02:56:32;;;;;;;3.73;3.43;;;0.40;99.90;;;;;;4927206;29;20126;-76
2022/03/05 02:58:57;;;;;;;4.37;3.47;;;0.40;99.90;;;;;;4926894;29;20519;-76
2022/03/05 03:01:24;;;;;;;7.30;4.03;;;0.30;99.90;;;;;;4927203;29;20507;-77
2022/03/05 03:03:50;;;;;;;5.10;4.37;;;0.30;99.90;;;;;;4925762;29;20052;-76
2022/03/05 03:06:16;;;;;;;6.30;4.70;;;0.30;99.90;;;;;;4925909;29;20048;-76
2022/03/05 03:08:41;;;;;;;5.63;4.93;;;0.30;99.90;;;;;;4927597;29;20046;-76
2022/03/05 03:11:07;;;;;;;4.07;3.37;;;0.30;99.90;;;;;;4925080;29;20083;-76
2022/03/05 03:13:32;;;;;;;7.03;3.67;;;0.30;99.90;;;;;;4926207;29;20130;-76
2022/03/05 03:15:58;;;;;;;3.63;3.37;;;0.30;99.90;;;;;;4924540;29;20397;-76
2022/03/05 03:18:23;;;;;;;14.33;3.27;;;0.30;99.90;;;;;;4908795;29;20716;-76
2022/03/05 03:20:49;;;;;;;8.77;4.57;;;0.30;99.90;;;;;;4925368;29;20399;-76
2022/03/05 03:23:15;;;;;;;7.40;4.77;;;0.30;99.90;;;;;;4926165;29;20118;-75
2022/03/05 03:25:40;;;;;;;3.50;3.10;;;0.30;99.90;;;;;;4926774;29;20055;-76
2022/03/05 03:28:07;;;;;;;4.93;4.20;;;0.30;99.90;;;;;;4925367;29;20503;-76
2022/03/05 03:30:33;;;;;;;7.40;5.57;;;0.20;99.90;;;;;;4924602;29;20206;-76
2022/03/05 03:33:00;;;;;;;3.67;3.00;;;0.20;99.90;;;;;;4925077;29;20423;-76
2022/03/05 03:35:26;;;;;;;7.87;2.93;;;0.30;99.90;;;;;;4925819;29;20543;-76
2022/03/05 03:37:51;;;;;;;9.07;3.90;;;0.20;99.90;;;;;;4923821;29;20155;-76
2022/03/05 03:40:18;;;;;;;3.03;2.80;;;0.20;99.90;;;;;;4925119;29;20504;-77
2022/03/05 03:42:45;;;;;;;4.00;3.70;;;0.30;99.90;;;;;;4926603;29;20047;-76
2022/03/05 03:45:12;;;;;;;3.50;3.20;;;0.30;99.90;;;;;;4925001;29;20372;-76
2022/03/05 03:47:39;;;;;;;4.77;4.37;;;0.30;99.90;;;;;;4926254;29;20039;-76
2022/03/05 03:50:06;;;;;;;1.30;1.20;;;0.30;99.90;;;;;;4924685;29;20476;-76
2022/03/05 03:52:32;;;;;;;3.20;2.90;;;0.30;99.90;;;;;;4924934;29;20051;-76
2022/03/05 03:54:57;;;;;;;3.33;2.63;;;0.30;99.90;;;;;;4925618;29;20067;-76
2022/03/05 03:57:23;;;;;;;5.17;4.67;;;0.20;99.90;;;;;;4926137;29;20110;-76
2022/03/05 03:59:51;;;;;;;4.10;2.87;;;0.20;99.90;;;;;;4925008;29;20043;-77
2022/03/05 04:02:21;;;;;;;5.67;2.37;;;0.20;99.90;;;;;;4925908;29;20079;-76
2022/03/05 04:04:47;;;;;;;1.77;1.67;;;0.20;99.90;;;;;;4925080;29;20152;-76
2022/03/05 04:09:57;;;;;;;3.70;3.47;;;0.20;99.90;;;;;;4925587;29;20047;-76
2022/03/05 04:12:23;;;;;;;9.73;3.77;;;0.20;99.90;;;;;;4925193;29;21372;-76
2022/03/05 04:14:49;;;;;;;5.30;2.83;;;0.20;99.90;;;;;;4925326;29;20438;-76
2022/03/05 04:17:15;;;;;;;5.03;3.07;;;0.20;99.90;;;;;;4925612;29;20135;-77
2022/03/05 04:19:41;;;;;;;12.13;5.27;;;0.20;99.90;;;;;;4924529;29;20159;-76
2022/03/05 04:22:07;;;;;;;5.70;4.03;;;0.20;99.90;;;;;;4924201;29;20550;-77
2022/03/05 04:24:33;;;;;;;7.70;4.23;;;0.20;99.90;;;;;;4925526;29;20083;-77
2022/03/05 04:26:58;;;;;;;6.43;3.67;;;0.20;99.90;;;;;;4925164;29;20134;-76
2022/03/05 04:29:24;;;;;;;5.07;4.00;;;0.20;99.90;;;;;;4924962;29;20410;-76
2022/03/05 04:31:50;;;;;;;4.93;4.50;;;0.20;99.90;;;;;;4923614;29;20055;-76
2022/03/05 04:34:16;;;;;;;4.10;3.57;;;0.20;99.90;;;;;;4925281;28;20054;-76
2022/03/05 04:36:41;;;;;;;2.67;2.47;;;0.20;99.90;;;;;;4939393;29;20115;-77
2022/03/05 04:39:07;;;;;;;4.83;3.10;;;0.20;99.90;;;;;;4925295;29;20047;-76
2022/03/05 04:41:33;;;;;;;7.27;4.47;;;0.10;99.90;;;;;;4925324;29;20484;-76
2022/03/05 04:43:58;;;;;;;6.13;3.30;;;0.10;99.90;;;;;;4924796;29;20048;-76
2022/03/05 04:46:24;;;;;;;5.00;3.00;;;0.10;99.90;;;;;;4924875;29;20050;-76
2022/03/05 04:48:50;;;;;;;3.17;2.97;;;0.10;99.90;;;;;;4923713;29;20152;-77
2022/03/05 04:51:15;;;;;;;4.20;3.80;;;0.10;99.90;;;;;;4939233;29;20090;-77
2022/03/05 04:53:41;;;;;;;4.43;4.03;;;0.10;99.90;;;;;;4925302;29;20051;-76
2022/03/05 04:56:06;;;;;;;3.17;2.97;;;0.10;99.90;;;;;;4925064;29;20044;-77
2022/03/05 04:58:32;;;;;;;6.40;4.57;;;0.10;99.90;;;;;;4925077;29;20058;-76
2022/03/05 05:00:58;;;;;;;5.03;4.57;;;0.10;99.90;;;;;;4923302;29;20050;-76
2022/03/05 05:03:23;;;;;;;4.70;2.73;;;0.00;99.90;;;;;;4925037;29;20047;-76
2022/03/05 05:05:49;;;;;;;3.20;2.80;;;0.10;99.90;;;;;;4922518;29;20392;-76
2022/03/05 05:08:16;;;;;;;4.50;3.27;;;0.10;99.90;;;;;;4924365;29;20048;-76
2022/03/05 05:10:41;;;;;;;2.70;2.50;;;0.00;99.90;;;;;;4925229;29;20442;-77
2022/03/05 05:13:07;;;;;;;4.13;2.80;;;0.00;99.90;;;;;;4924734;29;20135;-76
2022/03/05 05:15:32;;;;;;;8.33;5.00;;;0.10;99.90;;;;;;4925358;29;20102;-76
2022/03/05 05:18:00;;;;;;;3.23;2.93;;;0.00;99.90;;;;;;4924344;29;20035;-76
2022/03/05 05:20:26;;;;;;;5.87;3.30;;;0.00;99.90;;;;;;4924525;29;20048;-76
2022/03/05 05:22:51;;;;;;;5.80;3.27;;;0.00;99.90;;;;;;4924731;29;20118;-77
2022/03/05 05:25:17;;;;;;;5.53;5.13;;;0.00;99.90;;;;;;4925158;29;20079;-77
2022/03/05 05:27:43;;;;;;;2.50;2.30;;;0.00;99.90;;;;;;4924894;29;20067;-77
2022/03/05 05:30:09;;;;;;;2.87;2.67;;;0.00;99.90;;;;;;4924449;29;20488;-76
2022/03/05 05:32:35;;;;;;;7.40;5.10;;;0.00;99.90;;;;;;4924748;29;20626;-76
2022/03/05 05:35:01;;;;;;;6.10;5.53;;;0.00;99.90;;;;;;4924758;29;20047;-76
2022/03/05 05:37:26;;;;;;;3.90;3.20;;;0.00;99.90;;;;;;4924126;29;20050;-76
2022/03/05 05:39:52;;;;;;;12.27;4.67;;;-0.10;99.90;;;;;;4925536;29;20039;-77
2022/03/05 05:42:17;;;;;;;4.40;2.70;;;-0.10;99.90;;;;;;4926947;29;20050;-77
2022/03/05 05:44:43;;;;;;;4.23;3.63;;;-0.10;99.90;;;;;;4927268;29;20065;-76
2022/03/05 05:47:09;;;;;;;7.20;6.17;;;-0.10;99.90;;;;;;4926652;29;20075;-76
2022/03/05 05:49:35;;;;;;;5.53;5.03;;;-0.10;99.90;;;;;;4927366;29;20383;-77
2022/03/05 05:52:01;;;;;;;3.27;3.00;;;-0.10;99.90;;;;;;4925489;29;20051;-77
2022/03/05 05:54:27;;;;;;;4.70;3.63;;;-0.20;99.90;;;;;;4927041;29;20398;-76
2022/03/05 05:56:52;;;;;;;3.77;3.43;;;-0.20;99.90;;;;;;4927686;29;20046;-77
2022/03/05 05:59:18;;;;;;;2.57;2.40;;;-0.20;99.90;;;;;;4926315;29;20115;-76
2022/03/05 06:01:44;;;;;;;3.20;2.97;;;-0.20;99.90;;;;;;4927392;29;20769;-77
2022/03/05 06:04:09;;;;;;;11.20;5.53;;;-0.20;99.90;;;;;;4926693;29;20075;-76
2022/03/05 06:06:35;;;;;;;4.73;4.33;;;-0.30;99.90;;;;;;4925736;29;20126;-77
2022/03/05 06:09:01;;;;;;;5.67;3.57;;;-0.30;99.90;;;;;;4927636;29;20118;-77
2022/03/05 06:11:26;;;;;;;3.40;3.13;;;-0.30;99.90;;;;;;4925954;29;20490;-77
2022/03/05 06:13:52;;;;;;;9.07;5.03;;;-0.30;99.90;;;;;;4927269;29;20058;-77
2022/03/05 06:16:17;;;;;;;3.87;3.60;;;-0.30;99.90;;;;;;4927878;29;20043;-76
2022/03/05 06:18:43;;;;;;;6.27;3.27;;;-0.30;99.90;;;;;;4925197;29;20549;-76
2022/03/05 06:21:09;;;;;;;3.37;2.97;;;-0.30;99.90;;;;;;4925011;29;20557;-76
2022/03/05 06:23:36;;;;;;;10.97;5.13;;;-0.30;99.90;;;;;;4927538;29;20043;-77
2022/03/05 06:26:02;;;;;;;4.23;3.90;;;-0.40;99.90;;;;;;4925207;29;20059;-77
2022/03/05 06:28:28;;;;;;;6.33;4.17;;;-0.40;99.90;;;;;;4927364;29;20540;-77
2022/03/05 06:30:54;;;;;;;3.77;2.67;;;-0.40;99.90;;;;;;4926847;29;20128;-77
2022/03/05 06:33:20;;;;;;;6.20;4.27;;;-0.40;99.90;;;;;;4926484;29;20047;-77
2022/03/05 06:35:45;;;;;;;7.50;4.60;;;-0.40;99.90;;;;;;4925899;29;20047;-77
2022/03/05 06:38:11;;;;;;;6.33;4.40;;;-0.40;99.90;;;;;;4926541;29;20051;-77
2022/03/05 06:40:37;;;;;;;3.43;3.17;;;-0.40;99.90;;;;;;4927271;29;20048;-76
2022/03/05 06:43:03;;;;;;;4.03;2.63;;;-0.40;99.90;;;;;;4925057;29;20083;-77
2022/03/05 06:45:29;;;;;;;4.47;4.07;;;-0.40;99.90;;;;;;4926644;29;20039;-77
2022/03/05 06:47:54;;;;;;;3.90;3.43;;;-0.30;99.90;;;;;;4926808;29;20043;-77
2022/03/05 06:50:20;;;;;;;5.73;3.80;;;-0.40;99.90;;;;;;4924099;29;20044;-77
2022/03/05 06:52:46;;;;;;;2.97;2.63;;;-0.40;99.90;;;;;;4924296;29;20043;-77
2022/03/05 06:55:14;;;;;;;2.93;2.73;;;-0.40;99.90;;;;;;4926970;29;20039;-76
2022/03/05 06:57:43;;;;;;;3.83;3.53;;;-0.40;99.90;;;;;;4927002;29;20546;-77
2022/03/05 07:00:10;;;;;;;2.83;2.63;;;-0.40;99.90;;;;;;4926730;29;20056;-77
2022/03/05 07:02:36;;;;;;;7.70;3.20;;;-0.40;99.90;;;;;;4925636;29;20055;-76
2022/03/05 07:05:02;;;;;;;4.03;3.60;;;-0.30;99.90;;;;;;4926072;29;20044;-76
2022/03/05 07:07:28;;;;;;;4.87;3.10;;;-0.40;99.90;;;;;;4925035;29;20443;-76
2022/03/05 07:09:53;;;;;;;10.27;2.67;;;-0.30;99.90;;;;;;4926282;29;20043;-77
2022/03/05 07:12:19;;;;;;;6.03;3.73;;;-0.30;99.90;;;;;;4924682;29;20119;-76
2022/03/05 07:14:48;;;;;;;5.63;4.20;;;-0.30;99.90;;;;;;4925269;29;20724;-76
2022/03/05 07:17:15;;;;;;;6.07;3.37;;;-0.30;99.90;;;;;;4925544;29;20558;-77
2022/03/05 07:19:40;;;;;;;6.37;4.00;;;-0.30;99.90;;;;;;4926692;29;20127;-77
2022/03/05 07:22:06;;;;;;;4.97;3.83;;;-0.20;99.90;;;;;;4925143;29;20122;-77
2022/03/05 07:24:31;;;;;;;2.70;2.47;;;-0.20;99.90;;;;;;4909044;29;20052;-76
2022/03/05 07:26:57;;;;;;;5.23;4.93;;;-0.20;99.90;;;;;;4924591;29;20052;-76
2022/03/05 07:29:22;;;;;;;4.23;2.93;;;-0.10;99.90;;;;;;4925616;29;20071;-77
2022/03/05 07:31:48;;;;;;;6.67;4.60;;;-0.10;99.90;;;;;;4924768;29;20043;-77
2022/03/05 07:34:13;;;;;;;2.30;2.10;;;-0.10;99.90;;;;;;4926404;29;20074;-76
2022/03/05 07:36:39;;;;;;;11.10;4.50;;;-0.10;99.90;;;;;;4925042;29;20726;-77
2022/03/05 07:39:07;;;;;;;3.33;3.03;;;-0.10;99.90;;;;;;4925953;29;20562;-77
2022/03/05 07:41:33;;;;;;;2.83;2.67;;;0.00;99.90;;;;;;4924577;29;20114;-76
2022/03/05 07:43:58;;;;;;;4.17;3.57;;;0.00;99.90;;;;;;4921916;29;20454;-77
2022/03/05 07:46:24;;;;;;;4.57;4.07;;;0.00;99.90;;;;;;4906289;29;20052;-77
2022/03/05 07:48:49;;;;;;;6.03;3.20;;;0.10;99.90;;;;;;4924381;29;20080;-77
2022/03/05 07:51:15;;;;;;;4.93;4.07;;;0.10;99.90;;;;;;4925038;29;20051;-77
2022/03/05 07:53:40;;;;;;;4.63;4.20;;;0.10;99.90;;;;;;4926618;29;20119;-77
2022/03/05 07:56:06;;;;;;;5.40;3.87;;;0.10;99.90;;;;;;4924470;29;20048;-76
2022/03/05 07:58:32;;;;;;;2.00;1.87;;;0.20;99.90;;;;;;4926203;29;20044;-77
2022/03/05 08:00:58;;;;;;;3.77;3.47;;;0.20;99.90;;;;;;4924308;29;20044;-77
2022/03/05 08:03:24;;;;;;;2.50;2.40;;;0.20;99.90;;;;;;4925299;29;20040;-77
2022/03/05 08:05:49;;;;;;;5.90;3.10;;;0.20;99.90;;;;;;4924999;29;20584;-77
2022/03/05 08:08:15;;;;;;;6.20;2.57;;;0.30;99.90;;;;;;4925854;29;20043;-76
2022/03/05 08:10:40;;;;;;;5.17;3.10;;;0.30;99.90;;;;;;4926543;29;20163;-77
2022/03/05 08:13:06;;;;;;;2.40;2.07;;;0.30;99.90;;;;;;4924020;29;20056;-76
2022/03/05 08:15:32;;;;;;;6.73;3.93;;;0.30;99.90;;;;;;4924355;29;20435;-77
2022/03/05 08:18:00;;;;;;;3.67;3.07;;;0.40;99.90;;;;;;4925742;29;20044;-76
2022/03/05 08:20:28;;;;;;;3.90;3.60;;;0.40;99.90;;;;;;4923529;29;20582;-77
2022/03/05 08:22:54;;;;;;;3.37;3.07;;;0.40;99.90;;;;;;4925512;29;20644;-76
2022/03/05 08:25:21;;;;;;;5.47;4.63;;;0.40;99.90;;;;;;4925616;29;20050;-76
2022/03/05 08:27:47;;;;;;;8.77;5.77;;;0.50;99.90;;;;;;4925514;29;20096;-76
2022/03/05 08:30:13;;;;;;;7.90;4.63;;;0.50;99.90;;;;;;4924587;29;20095;-77
2022/03/05 08:32:39;;;;;;;3.40;3.20;;;0.60;99.90;;;;;;4922789;29;20054;-77
2022/03/05 08:35:07;;;;;;;8.23;6.23;;;0.60;99.90;;;;;;4914405;29;20123;-77
2022/03/05 08:37:33;;;;;;;4.43;3.57;;;0.60;99.90;;;;;;4915036;29;20036;-76
2022/03/05 08:39:59;;;;;;;3.73;3.37;;;0.70;99.90;;;;;;4907568;29;20446;-76
2022/03/05 08:42:24;;;;;;;6.77;4.13;;;0.70;99.90;;;;;;4906893;29;20083;-76
2022/03/05 08:44:50;;;;;;;4.77;4.37;;;0.70;99.90;;;;;;4913298;29;20421;-76
2022/03/05 08:47:16;;;;;;;4.30;4.00;;;0.70;99.90;;;;;;4925144;29;20440;-76
2022/03/05 08:49:41;;;;;;;4.57;4.17;;;0.80;99.90;;;;;;4924805;29;20077;-76
2022/03/05 08:52:08;;;;;;;4.80;4.40;;;0.80;99.90;;;;;;4923010;29;20075;-76
2022/03/05 08:54:34;;;;;;;4.43;3.33;;;0.80;99.90;;;;;;4925328;29;20150;-76
2022/03/05 08:56:59;;;;;;;6.37;5.00;;;0.90;99.90;;;;;;4917063;29;20534;-79
2022/03/05 08:59:25;;;;;;;5.37;5.00;;;0.90;99.90;;;;;;4914078;29;20063;-78
2022/03/05 09:01:51;;;;;;;3.77;3.07;;;1.00;99.90;;;;;;4911962;29;20048;-76
2022/03/05 09:04:16;;;;;;;7.17;6.40;;;1.00;99.90;;;;;;4915277;29;20408;-77
2022/03/05 09:06:42;;;;;;;6.10;5.47;;;1.00;99.90;;;;;;4913898;29;20036;-77
2022/03/05 09:09:08;;;;;;;10.70;7.13;;;1.00;99.90;;;;;;4908552;29;20046;-76
2022/03/05 09:11:37;;;;;;;7.47;5.00;;;1.10;99.90;;;;;;4914576;29;20044;-76
2022/03/05 09:14:03;;;;;;;6.10;5.03;;;1.10;99.90;;;;;;4913950;29;20055;-77
2022/03/05 09:16:29;;;;;;;6.20;5.37;;;1.10;99.90;;;;;;4933798;29;20538;-77
2022/03/05 09:18:55;;;;;;;8.73;6.43;;;1.20;99.90;;;;;;4925373;29;20047;-75
2022/03/05 09:21:21;;;;;;;4.30;4.00;;;1.20;99.90;;;;;;4918856;29;20450;-77
2022/03/05 09:23:47;;;;;;;5.27;4.87;;;1.20;99.90;;;;;;4902936;29;20566;-76
2022/03/05 09:26:15;;;;;;;7.97;4.93;;;1.20;99.90;;;;;;4919384;29;20047;-76
2022/03/05 09:28:41;;;;;;;9.47;4.57;;;1.30;99.90;;;;;;4917503;29;20075;-76
2022/03/05 09:31:06;;;;;;;4.93;4.43;;;1.30;99.90;;;;;;4918424;29;20173;-76
2022/03/05 09:33:32;;;;;;;9.57;6.03;;;1.30;99.90;;;;;;4908307;29;20578;-76
2022/03/05 09:35:58;;;;;;;7.13;6.43;;;1.40;99.90;;;;;;4907310;29;20043;-75
2022/03/05 09:38:23;;;;;;;5.57;4.33;;;1.40;99.90;;;;;;4909291;29;20078;-78
2022/03/05 09:40:49;;;;;;;5.03;4.53;;;1.40;99.90;;;;;;4909604;29;20084;-77
2022/03/05 09:43:17;;;;;;;7.33;5.53;;;1.40;99.90;;;;;;4918576;29;20079;-75
2022/03/05 09:45:44;;;;;;;7.40;4.27;;;1.50;99.90;;;;;;4911141;29;20066;-75
2022/03/05 09:48:15;;;;;;;7.97;5.30;;;1.50;99.90;;;;;;4909116;29;20044;-75
2022/03/05 09:50:41;;;;;;;7.10;6.30;;;1.50;99.90;;;;;;4907391;29;20055;-75
2022/03/05 09:53:06;;;;;;;9.53;6.30;;;1.50;99.90;;;;;;4923064;29;20063;-75
2022/03/05 09:55:32;;;;;;;6.33;5.23;;;1.60;99.90;;;;;;4926764;29;20055;-76
2022/03/05 09:57:59;;;;;;;7.13;5.67;;;1.60;99.90;;;;;;4926978;29;20051;-75
2022/03/05 10:00:24;;;;;;;10.40;4.73;;;1.60;99.90;;;;;;4927017;29;20072;-76
2022/03/05 10:02:50;;;;;;;10.33;7.53;;;1.70;99.90;;;;;;4926403;29;20048;-75
2022/03/05 10:05:24;;;;;;;12.00;4.97;;;1.70;99.90;;;;;;4925827;29;20044;-76
2022/03/05 10:08:08;;;;;;;7.10;5.20;;;1.70;99.90;;;;;;4927681;29;20046;-76
2022/03/05 10:10:59;;;;;;;11.83;7.70;;;1.80;99.90;;;;;;4922137;29;20076;-76
2022/03/05 10:13:30;;;;;;;6.53;5.97;;;1.80;99.90;;;;;;4918920;29;20606;-76
2022/03/05 10:15:59;;;;;;;13.53;6.77;;;1.90;99.90;;;;;;4916085;29;20736;-75
2022/03/05 10:18:27;;;;;;;6.77;5.30;;;1.90;99.90;;;;;;4918696;29;20040;-75
2022/03/05 10:20:52;;;;;;;7.50;6.80;;;2.00;99.90;;;;;;4925539;29;20143;-74
2022/03/05 10:23:20;;;;;;;8.10;5.80;;;2.00;99.90;;;;;;4927770;29;20127;-74
2022/03/05 10:25:55;;;;;;;11.27;7.87;;;2.00;99.90;;;;;;4925806;29;20110;-74
2022/03/05 10:28:28;;;;;;;7.23;6.00;;;2.00;99.90;;;;;;4946373;28;20699;-77
2022/03/05 10:30:58;;;;;;;13.63;6.73;;;2.10;99.90;;;;;;4922591;29;20062;-77
2022/03/05 10:33:29;;;;;;;8.47;6.17;;;2.10;99.90;;;;;;4893872;29;20048;-75
2022/03/05 10:35:57;;;;;;;12.65;7.25;;;2.10;99.90;;;;;;4918317;29;20746;-76
2022/03/05 10:38:25;;;;;;;11.10;7.53;;;2.20;99.90;;;;;;4915109;29;20040;-77
2022/03/05 10:40:56;;;;;;;8.63;5.60;;;2.20;99.90;;;;;;4918425;29;20106;-73
2022/03/05 10:43:23;;;;;;;8.80;7.70;;;2.20;99.90;;;;;;4920374;29;20502;-76
2022/03/05 10:45:58;;;;;;;6.97;5.47;;;2.30;99.90;;;;;;4925009;29;20051;-77
2022/03/05 10:48:30;;;;;;;5.57;5.07;;;2.30;99.90;;;;;;4921075;29;20051;-75
2022/03/05 10:50:58;;;;;;;9.60;7.25;;;2.30;99.90;;;;;;4920635;29;20039;-75
2022/03/05 10:53:47;;;;;;;8.23;6.33;;;2.40;99.90;;;;;;4923075;29;20124;-73
2022/03/05 10:56:27;;;;;;;11.57;6.47;;;2.40;99.90;;;;;;4907539;29;20048;-73
2022/03/05 10:59:04;;;;;;;7.37;6.63;;;2.40;99.90;;;;;;4916414;29;20054;-74
2022/03/05 11:01:30;;;;;;;7.10;6.27;;;2.50;99.90;;;;;;4925869;29;20546;-73
2022/03/05 11:03:57;;;;;;;9.93;7.03;;;2.50;99.90;;;;;;4926760;29;20047;-73
2022/03/05 11:06:23;;;;;;;7.83;6.67;;;2.50;99.90;;;;;;4925963;29;20040;-74
2022/03/05 11:08:50;;;;;;;5.60;5.13;;;2.60;99.90;;;;;;4925206;29;20114;-74
2022/03/05 11:11:18;;;;;;;5.43;4.77;;;2.60;99.90;;;;;;4914949;29;20048;-73
2022/03/05 11:13:44;;;;;;;7.37;5.87;;;2.70;99.90;;;;;;4906922;29;20052;-73
2022/03/05 11:16:11;;;;;;;14.30;6.63;;;2.70;99.90;;;;;;4909287;29;20055;-74
2022/03/05 11:18:37;;;;;;;8.87;6.17;;;2.70;99.90;;;;;;4925470;28;20506;-74
2022/03/05 11:21:04;;;;;;;14.93;7.77;;;2.70;99.90;;;;;;4925327;29;20082;-74
2022/03/05 11:23:31;;;;;;;15.07;7.47;;;2.70;99.90;;;;;;4927657;29;20065;-74
2022/03/05 11:25:59;;;;;;;5.80;5.30;;;2.70;99.90;;;;;;4924922;28;20408;-74
2022/03/05 11:28:36;;;;;;;9.00;6.70;;;2.80;99.90;;;;;;4918563;29;20091;-74
2022/03/05 11:31:13;;;;;;;6.93;6.20;;;2.80;99.90;;;;;;4913679;29;20066;-74
2022/03/05 11:33:43;;;;;;;11.93;6.50;;;2.90;99.90;;;;;;4937938;29;20040;-74
2022/03/05 11:36:22;;;;;;;4.67;4.27;;;2.90;99.90;;;;;;4923713;29;20246;-74
2022/03/05 11:38:48;;;;;;;9.37;6.03;;;2.90;99.90;;;;;;4922640;29;20056;-74
2022/03/05 11:41:19;;;;;;;16.97;7.77;;;3.00;99.90;;;;;;4923667;29;20686;-74
2022/03/05 11:43:47;;;;;;;9.65;7.00;;;3.00;99.90;;;;;;4924494;29;20043;-75
2022/03/05 11:46:27;;;;;;;8.60;5.67;;;3.00;99.90;;;;;;4921673;29;20070;-76
2022/03/05 11:49:11;;;;;;;8.90;6.37;;;3.00;99.90;;;;;;4905892;29;20731;-81
2022/03/05 11:51:56;;;;;;;11.80;6.63;;;3.00;99.90;;;;;;4914759;29;20155;-77
2022/03/05 11:54:23;;;;;;;9.87;7.03;;;3.10;99.90;;;;;;4915911;29;20040;-78
2022/03/05 11:57:16;;;;;;;8.20;6.10;;;3.10;99.90;;;;;;4925023;29;20044;-78
2022/03/05 11:59:53;;;;;;;7.70;5.60;;;3.10;99.90;;;;;;4919186;29;20039;-79
2022/03/05 12:02:38;;;;;;;12.57;7.23;;;3.10;99.90;;;;;;4922915;29;20556;-77
2022/03/05 12:05:04;;;;;;;5.47;5.00;;;3.10;99.90;;;;;;4922535;29;20517;-78
2022/03/05 12:07:40;;;;;;;14.13;5.40;;;3.20;99.90;;;;;;4924888;29;20039;-78
2022/03/05 12:10:14;;;;;;;7.70;7.00;;;3.20;99.90;;;;;;4912381;29;20040;-78
2022/03/05 12:12:53;;;;;;;8.20;6.90;;;3.20;99.90;;;;;;4918772;29;20055;-77
2022/03/05 12:15:34;;;;;;;9.30;7.53;;;3.20;99.90;;;;;;4944739;28;20106;-79
2022/03/05 12:18:01;;;;;;;6.70;5.90;;;3.30;99.90;;;;;;4909522;29;20414;-79
2022/03/05 12:20:31;;;;;;;7.33;6.50;;;3.30;99.90;;;;;;4916515;29;20039;-76
2022/03/05 12:23:17;;;;;;;8.93;6.20;;;3.30;99.90;;;;;;4920721;29;20058;-76
2022/03/05 12:25:45;;;;;;;15.03;6.93;;;3.30;99.90;;;;;;4922633;29;20150;-75
2022/03/05 12:28:16;;;;;;;16.17;7.30;;;3.30;99.90;;;;;;4908957;29;20040;-74
2022/03/05 12:30:42;;;;;;;12.03;5.63;;;3.40;99.90;;;;;;4908056;29;20039;-75
2022/03/05 12:33:11;;;;;;;13.50;6.97;;;3.40;99.90;;;;;;4924383;29;20268;-75
2022/03/05 12:35:38;;;;;;;5.57;4.50;;;3.40;99.90;;;;;;4923284;29;20561;-75
2022/03/05 12:38:06;;;;;;;10.23;6.30;;;3.50;99.90;;;;;;4923537;29;20055;-75
2022/03/05 12:40:32;;;;;;;7.03;6.37;;;3.50;99.90;;;;;;4923216;29;20043;-75
2022/03/05 12:43:00;;;;;;;10.87;7.33;;;3.50;99.90;;;;;;4923249;29;20091;-74
2022/03/05 12:45:33;;;;;;;7.50;5.60;;;3.50;99.90;;;;;;4923459;29;20039;-75
2022/03/05 12:48:07;;;;;;;8.80;7.90;;;3.60;99.90;;;;;;4918031;29;20430;-75
2022/03/05 12:50:36;;;;;;;9.37;8.30;;;3.50;99.90;;;;;;4909254;29;20032;-75
2022/03/05 12:53:07;;;;;;;17.13;7.87;;;3.60;99.90;;;;;;4927196;29;20063;-75
2022/03/05 12:55:49;;;;;;;6.60;6.00;;;3.60;99.90;;;;;;4928329;29;20424;-75
2022/03/05 12:58:21;;;;;;;16.00;7.05;;;3.60;99.90;;;;;;4925522;29;20115;-75